Terminal Aerodrome Forecast
Issued by NWS

Home | Current Version | Previous Version | Text Only | Print | Product List | Glossary On
Versions: 1 2 3 4 5 6 7 8 9 10 11 12 13
000
FTUS46 KHNX 192200 AAA
TAFFAT
TAF AMD
KFAT 192203Z 1922/2018 30013G21KT P6SM SCT200
     FM200300 31007KT P6SM SKC
     FM201000 VRB03KT P6SM SKC=

USA.gov is the U.S. government's official web portal to all federal, state and local government web resources and services.